createdAt,value
2023-05-14T00:00:00.548Z,21
2023-05-14T00:04:00.670Z,22
2023-05-14T00:08:00.555Z,19
2023-05-14T00:12:00.590Z,22
2023-05-14T00:16:00.585Z,21
2023-05-14T00:20:00.565Z,20
2023-05-14T00:24:00.556Z,22
2023-05-14T00:28:00.541Z,23
2023-05-14T00:32:00.590Z,24
2023-05-14T00:36:00.802Z,23
2023-05-14T00:40:00.598Z,20
2023-05-14T00:44:00.555Z,21
2023-05-14T00:48:00.606Z,24
2023-05-14T00:52:00.557Z,20
2023-05-14T00:56:00.546Z,20
2023-05-14T01:00:00.569Z,24
2023-05-14T01:04:00.621Z,23
2023-05-14T01:08:00.542Z,22
2023-05-14T01:12:00.559Z,23
2023-05-14T01:16:00.621Z,20
2023-05-14T01:20:00.552Z,19
2023-05-14T01:24:00.613Z,19
2023-05-14T01:28:00.556Z,19
2023-05-14T01:32:00.701Z,24
2023-05-14T01:36:00.611Z,21
2023-05-14T01:40:00.588Z,20
2023-05-14T01:44:00.557Z,22
2023-05-14T01:48:01.671Z,21
2023-05-14T01:52:00.548Z,25
2023-05-14T01:56:00.572Z,18
2023-05-14T02:00:00.590Z,19
2023-05-14T02:04:00.628Z,19
2023-05-14T02:08:00.567Z,22
2023-05-14T02:12:00.566Z,21
2023-05-14T02:16:00.676Z,20
2023-05-14T02:20:00.563Z,19
2023-05-14T02:24:00.558Z,22
2023-05-14T02:28:00.555Z,21
2023-05-14T02:32:00.550Z,23
2023-05-14T02:36:00.562Z,16
2023-05-14T02:40:00.560Z,19
2023-05-14T02:44:00.539Z,22
2023-05-14T02:48:00.607Z,19
2023-05-14T02:52:00.551Z,19
2023-05-14T02:56:00.617Z,20
2023-05-14T03:00:00.555Z,20
2023-05-14T03:04:00.553Z,20
2023-05-14T03:08:00.559Z,18
2023-05-14T03:12:00.588Z,20
2023-05-14T03:16:00.541Z,18
2023-05-14T03:20:00.606Z,19
2023-05-14T03:24:00.573Z,19
2023-05-14T03:28:00.554Z,19
2023-05-14T03:32:00.569Z,23
2023-05-14T03:36:00.591Z,20
2023-05-14T03:40:00.566Z,18
2023-05-14T03:44:00.555Z,20
2023-05-14T03:48:00.724Z,20
2023-05-14T03:52:00.566Z,17
2023-05-14T03:56:00.587Z,19
2023-05-14T04:00:00.606Z,18
2023-05-14T04:04:00.805Z,20
2023-05-14T04:08:00.557Z,20
2023-05-14T04:12:00.587Z,20
2023-05-14T04:16:00.599Z,20
2023-05-14T04:20:00.580Z,22
2023-05-14T04:24:00.587Z,20
2023-05-14T04:28:00.566Z,21
2023-05-14T04:32:00.735Z,19
2023-05-14T04:36:00.563Z,20
2023-05-14T04:40:00.589Z,20
2023-05-14T04:44:00.565Z,23
2023-05-14T04:48:00.768Z,18
2023-05-14T04:52:00.561Z,22
2023-05-14T04:56:00.543Z,20
2023-05-14T05:00:00.576Z,18
2023-05-14T05:04:00.634Z,17
2023-05-14T05:08:00.552Z,19
2023-05-14T05:12:00.558Z,22
2023-05-14T05:16:00.709Z,19
2023-05-14T05:20:00.596Z,19
2023-05-14T05:24:00.659Z,24
2023-05-14T05:28:00.684Z,21
2023-05-14T05:32:00.701Z,18
2023-05-14T05:36:00.581Z,17
2023-05-14T05:40:00.603Z,18
2023-05-14T05:44:00.567Z,17
2023-05-14T05:48:00.653Z,18
2023-05-14T05:52:00.566Z,19
2023-05-14T05:56:00.583Z,18
2023-05-14T06:00:00.570Z,17
2023-05-14T06:04:00.575Z,17
2023-05-14T06:08:00.583Z,17
2023-05-14T06:12:00.602Z,18
2023-05-14T06:16:00.593Z,15
2023-05-14T06:20:00.583Z,19
2023-05-14T06:24:00.567Z,14
2023-05-14T06:28:00.578Z,16
2023-05-14T06:32:00.661Z,19
2023-05-14T06:36:00.589Z,16
2023-05-14T06:40:00.564Z,16
2023-05-14T06:44:00.555Z,15
2023-05-14T06:48:00.721Z,15
2023-05-14T06:52:00.556Z,15
2023-05-14T06:56:00.582Z,16
2023-05-14T07:00:02.772Z,18
2023-05-14T07:04:00.676Z,16
2023-05-14T07:08:00.551Z,15
2023-05-14T07:12:00.565Z,14
2023-05-14T07:16:00.624Z,15
2023-05-14T07:20:00.600Z,15
2023-05-14T07:24:00.592Z,12
2023-05-14T07:28:00.567Z,11
2023-05-14T07:32:00.569Z,12
2023-05-14T07:36:00.560Z,12
2023-05-14T07:40:00.574Z,10
2023-05-14T07:44:00.529Z,13
2023-05-14T07:48:00.778Z,13
2023-05-14T07:52:00.576Z,12
2023-05-14T07:56:00.543Z,11
2023-05-14T08:00:00.569Z,13
2023-05-14T08:04:00.695Z,13
2023-05-14T08:08:00.560Z,11
2023-05-14T08:12:00.554Z,12
2023-05-14T08:16:00.578Z,13
2023-05-14T08:20:00.548Z,12
2023-05-14T08:24:00.567Z,12
2023-05-14T08:28:00.557Z,12
2023-05-14T08:32:08.380Z,10
2023-05-14T08:36:00.661Z,11
2023-05-14T08:40:00.591Z,10
2023-05-14T08:44:00.573Z,12
2023-05-14T08:48:00.722Z,10
2023-05-14T08:52:00.562Z,9
2023-05-14T08:56:00.554Z,9
2023-05-14T09:00:00.616Z,7
2023-05-14T09:04:00.651Z,8
2023-05-14T09:08:00.553Z,10
2023-05-14T09:12:00.544Z,8
2023-05-14T09:16:00.624Z,7
2023-05-14T09:20:00.584Z,8
2023-05-14T09:24:00.557Z,9
2023-05-14T09:28:00.581Z,7
2023-05-14T09:32:00.646Z,11
2023-05-14T09:36:00.543Z,8
2023-05-14T09:40:00.803Z,11
2023-05-14T09:44:00.548Z,8
2023-05-14T09:48:00.747Z,9
2023-05-14T09:52:00.567Z,8
2023-05-14T09:56:00.574Z,10
2023-05-14T10:00:00.576Z,7
2023-05-14T10:04:00.663Z,8
2023-05-14T10:08:00.565Z,10
2023-05-14T10:12:00.608Z,10
2023-05-14T10:16:00.574Z,9
2023-05-14T10:20:00.584Z,9
2023-05-14T10:24:00.542Z,10
2023-05-14T10:28:00.527Z,10
2023-05-14T10:32:00.558Z,9
2023-05-14T10:36:00.529Z,8
2023-05-14T10:40:00.544Z,10
2023-05-14T10:44:00.534Z,8
2023-05-14T10:48:00.631Z,9
2023-05-14T10:52:00.559Z,9
2023-05-14T10:56:00.573Z,10
2023-05-14T11:00:00.584Z,9
2023-05-14T11:04:00.606Z,8
2023-05-14T11:08:00.572Z,10
2023-05-14T11:12:00.565Z,9
2023-05-14T11:16:06.298Z,8
2023-05-14T11:20:00.579Z,9
2023-05-14T11:24:00.603Z,9
2023-05-14T11:28:00.572Z,9
2023-05-14T11:32:00.586Z,9
2023-05-14T11:36:00.538Z,9
2023-05-14T11:40:00.565Z,12
2023-05-14T11:44:00.544Z,9
2023-05-14T11:48:00.598Z,8
2023-05-14T11:52:00.575Z,10
2023-05-14T11:56:00.553Z,10
2023-05-14T12:00:00.538Z,9
2023-05-14T12:04:00.706Z,10
2023-05-14T12:08:00.553Z,9
2023-05-14T12:12:00.569Z,8
2023-05-14T12:16:00.602Z,8
2023-05-14T12:20:00.557Z,15
2023-05-14T12:24:00.559Z,7
2023-05-14T12:28:00.530Z,9
2023-05-14T12:32:00.553Z,9
2023-05-14T12:36:04.780Z,9
2023-05-14T12:40:00.577Z,7
2023-05-14T12:44:00.605Z,6
2023-05-14T12:48:00.591Z,7
2023-05-14T12:52:19.416Z,8
2023-05-14T12:56:00.567Z,8
2023-05-14T13:00:00.561Z,7
2023-05-14T13:04:00.652Z,7
2023-05-14T13:08:00.572Z,8
2023-05-14T13:12:00.578Z,9
2023-05-14T13:16:00.591Z,9
2023-05-14T13:20:00.544Z,8
2023-05-14T13:24:00.567Z,9
2023-05-14T13:28:00.569Z,7
2023-05-14T13:32:00.561Z,8
2023-05-14T13:36:00.546Z,9
2023-05-14T13:40:00.567Z,10
2023-05-14T13:44:00.544Z,10
2023-05-14T13:48:00.615Z,7
2023-05-14T13:52:00.553Z,8
2023-05-14T13:56:00.568Z,8
2023-05-14T14:00:00.570Z,8
2023-05-14T14:04:00.595Z,7
2023-05-14T14:08:04.575Z,6
2023-05-14T14:12:00.604Z,7
2023-05-14T14:16:00.596Z,6
2023-05-14T14:20:00.559Z,6
2023-05-14T14:24:00.568Z,5
2023-05-14T14:28:00.560Z,7
2023-05-14T14:32:00.695Z,6
2023-05-14T14:36:00.549Z,6
2023-05-14T14:40:00.569Z,7
2023-05-14T14:44:00.539Z,7
2023-05-14T14:48:00.614Z,8
2023-05-14T14:52:00.576Z,7
2023-05-14T14:56:00.598Z,7
2023-05-14T15:00:02.284Z,7
2023-05-14T15:04:00.569Z,10
2023-05-14T15:08:00.553Z,7
2023-05-14T15:12:00.596Z,7
2023-05-14T15:16:01.610Z,7
2023-05-14T15:20:00.586Z,8
2023-05-14T15:24:00.557Z,9
2023-05-14T15:28:00.545Z,9
2023-05-14T15:32:00.670Z,8
2023-05-14T15:36:00.547Z,9
2023-05-14T15:40:00.571Z,9
2023-05-14T15:44:00.543Z,10
2023-05-14T15:48:00.694Z,8
2023-05-14T15:52:00.521Z,7
2023-05-14T15:56:00.601Z,6
2023-05-14T16:00:00.548Z,9
2023-05-14T16:04:00.589Z,8
2023-05-14T16:08:00.560Z,9
2023-05-14T16:12:00.575Z,7
2023-05-14T16:16:00.665Z,8
2023-05-14T16:20:00.576Z,8
2023-05-14T16:24:00.563Z,7
2023-05-14T16:28:00.594Z,7
2023-05-14T16:32:00.616Z,9
2023-05-14T16:36:00.550Z,7
2023-05-14T16:40:00.593Z,7
2023-05-14T16:44:00.535Z,9
2023-05-14T16:48:00.587Z,8
2023-05-14T16:52:00.543Z,9
2023-05-14T16:56:00.563Z,8
2023-05-14T17:00:00.721Z,7
2023-05-14T17:04:00.557Z,9
2023-05-14T17:08:00.556Z,8
2023-05-14T17:12:00.588Z,8
2023-05-14T17:16:00.705Z,8
2023-05-14T17:20:00.970Z,8
2023-05-14T17:24:00.544Z,8
2023-05-14T17:28:00.548Z,7
2023-05-14T17:32:00.724Z,8
2023-05-14T17:36:00.536Z,9
2023-05-14T17:40:00.566Z,7
2023-05-14T17:44:00.545Z,8
2023-05-14T17:48:00.561Z,8
2023-05-14T17:52:00.574Z,10
2023-05-14T17:56:00.580Z,8
2023-05-14T18:00:00.567Z,8
2023-05-14T18:04:00.596Z,10
2023-05-14T18:08:00.561Z,8
2023-05-14T18:12:00.557Z,10
2023-05-14T18:16:00.653Z,12
2023-05-14T18:20:00.565Z,13
2023-05-14T18:24:00.592Z,12
2023-05-14T18:28:00.591Z,10
2023-05-14T18:32:00.562Z,10
2023-05-14T18:36:00.577Z,13
2023-05-14T18:40:00.573Z,13
2023-05-14T18:44:00.561Z,9
2023-05-14T18:48:00.599Z,12
2023-05-14T18:52:00.576Z,11
2023-05-14T18:56:00.549Z,11
2023-05-14T19:00:00.600Z,12
2023-05-14T19:04:02.453Z,18
2023-05-14T19:08:00.580Z,20
2023-05-14T19:12:00.545Z,37
2023-05-14T19:16:00.647Z,36
2023-05-14T19:20:00.574Z,40
2023-05-14T19:24:00.582Z,54
2023-05-14T19:28:00.544Z,66
2023-05-14T19:32:00.703Z,69
2023-05-14T19:36:00.553Z,65
2023-05-14T19:40:00.570Z,81
2023-05-14T19:44:00.578Z,72
2023-05-14T19:48:00.576Z,89
2023-05-14T19:52:00.598Z,70
2023-05-14T19:56:00.565Z,45
2023-05-14T20:00:00.585Z,37
2023-05-14T20:04:00.543Z,31
2023-05-14T20:08:00.587Z,30
2023-05-14T20:12:00.553Z,40
2023-05-14T20:16:00.554Z,32
2023-05-14T20:20:00.561Z,34
2023-05-14T20:24:00.576Z,37
2023-05-14T20:28:00.560Z,41
2023-05-14T20:32:00.549Z,44
2023-05-14T20:36:00.565Z,57
2023-05-14T20:40:00.659Z,62
2023-05-14T20:44:00.585Z,47
2023-05-14T20:48:00.624Z,48
2023-05-14T20:52:00.569Z,36
2023-05-14T20:56:00.564Z,43
2023-05-14T21:00:00.590Z,45
2023-05-14T21:04:00.797Z,42
2023-05-14T21:08:00.558Z,36
2023-05-14T21:12:00.560Z,41
2023-05-14T21:16:00.660Z,41
2023-05-14T21:20:00.545Z,42
2023-05-14T21:24:00.570Z,36
2023-05-14T21:28:00.567Z,32
2023-05-14T21:32:00.705Z,28
2023-05-14T21:36:00.536Z,30
2023-05-14T21:40:00.553Z,30
2023-05-14T21:44:00.559Z,37
2023-05-14T21:48:00.715Z,31
2023-05-14T21:52:00.574Z,36
2023-05-14T21:56:00.568Z,40
2023-05-14T22:00:00.556Z,32
2023-05-14T22:04:00.625Z,34
2023-05-14T22:08:00.558Z,31
2023-05-14T22:12:00.579Z,31
2023-05-14T22:16:12.274Z,31
2023-05-14T22:20:00.563Z,29
2023-05-14T22:24:00.591Z,24
2023-05-14T22:28:00.560Z,23
2023-05-14T22:32:00.591Z,24
2023-05-14T22:36:00.585Z,22
2023-05-14T22:40:00.585Z,22
2023-05-14T22:44:00.659Z,20
2023-05-14T22:48:00.647Z,24
2023-05-14T22:52:00.545Z,26
2023-05-14T22:56:00.564Z,25
2023-05-14T23:00:00.567Z,25
2023-05-14T23:16:00.574Z,21
2023-05-14T23:20:00.593Z,27
2023-05-14T23:24:00.573Z,24
2023-05-14T23:28:00.557Z,23
2023-05-14T23:32:00.670Z,22
2023-05-14T23:36:00.541Z,24
2023-05-14T23:40:00.569Z,24
2023-05-14T23:44:00.550Z,24
2023-05-14T23:48:00.659Z,25
2023-05-14T23:52:00.559Z,25
2023-05-14T23:56:00.550Z,23
